Ana Sayfa
METAR-TAF:

METAR-TAF

Havaalanları :

Poplar Bluff Municipal Airport

Poplar Bluff, Missouri, Amerika Birleşik Devletleri

Enlem: 36-46-14N, Boylam: 090-19-20W, yükseklik: 100 m

Güncel hava durumu gözlemi

Rapor saat 03:53 UTC de 21 dakika önce yapıldı.
Rüzgar kuzey/kuzeybatıdan 3 kt
Sıcaklık 25°C
Nem 83%
Basınç 1012 hPa
Görüş mesafesi: 16.1 km
Açık gökyüzü

METAR: KPOF 240353Z AUTO 33003KT 10SM CLR 25/22 A2989 RMK AO2 SLP116 T02500217

Saat: 23:14 (04:14 UTC)


TAF: eksik

4.000'den fazla havaalanı için hava durumu gözlemleri ve tahminleri (METAR ve TAF raporları).

Kullanılabilir istasyonlar harita üzerinde sarı ve kırmızı noktalarla gösterilir.

İstasyonun adını görmek için fareyi noktanın üzerinde gezdirin.

Sonrasında hava gözlem ve tahminlerini görmek için tıklayın.

Haritayı değiştirmek için: yaklaştırmak için siyah artı işaretli yeşil düğmeye ve uzaklaştırmak için de eksi işaretli düğmeye hızla tıklayın; bitişik haritalar için yeşil okları kullanın.


METAR-TAF: